Terminal Aerodrome Forecast
Issued by NWS

Home | Current Version | Previous Version | Text Only | Print | Product List | Glossary Off
Versions: 1 2 3 4 5 6 7 8 9 10 11 12 13 14 15 16 17 18 19 20 21 22 23

000
FTUS43 KMPX 061739
TAFAXN
TAF
KAXN 061739Z 0618/0718 13012KT 4SM BR OVC006
     FM062000 13013G20KT 5SM BR VCSH SCT006 BKN050
     FM062200 13014G23KT 6SM -SHRA SCT015 OVC090
     FM070000 12014G20KT 5SM -SHRA VCTS SCT025 OVC050CB
     FM070300 14012KT P6SM OVC040
     FM070600 14012KT 4SM -SHRA SCT007 OVC012 PROB30 0708/0714 2SM
      TSRA SCT015 BKN025CB
     FM071400 18013G20KT 4SM -RA BKN015=

USA.gov is the U.S. government's official web portal to all federal, state and local government web resources and services.